Skip to main content

Vila Real

ID 1200567 · 41.2742, -7.7171 map

Latest reading · 2026-05-09 19:00 (Europe/Lisbon)

Temperature
11.6 °C
Humidity
94 %
Pressure
1,006.7 hPa
Precipitation
0.0 mm
Radiation
463 W/m²
Wind speed
1.4 km/h
Wind direction
SE · South-east

24-hour history

Time (Europe/Lisbon) Temp Humidity Pressure Rain Wind Dir
2026-05-09 19:00 11.6 °C 94 % 1,006.7 0.0 mm 1.4 km/h SE
2026-05-09 18:00 10.9 °C 100 % 1,006.5 2.6 mm 2.5 km/h SE
2026-05-09 17:00 11.8 °C 97 % 1,005.5 4.3 mm 8.3 km/h W
2026-05-09 16:00 12.8 °C 92 % 1,004.4 0.3 mm 2.5 km/h S
2026-05-09 15:00 13.2 °C 87 % 1,004.2 0.0 mm 3.6 km/h SE
2026-05-09 14:00 13.3 °C 85 % 1,004.5 0.2 mm 3.6 km/h SE
2026-05-09 13:00 13.2 °C 85 % 1,004.9 0.0 mm 4.3 km/h SE
2026-05-09 12:00 11.2 °C 96 % 1,005.6 0.7 mm 4.7 km/h SE
2026-05-09 11:00 11.7 °C 85 % 1,005.6 0.4 mm 2.5 km/h SE
2026-05-09 10:00 13.3 °C 77 % 1,005.2 0.0 mm 3.6 km/h SE
2026-05-09 09:00 12.7 °C 81 % 1,005.3 0.0 mm 3.2 km/h SE
2026-05-09 08:00 10.9 °C 89 % 1,005.7 0.0 mm 4.3 km/h SE
2026-05-09 07:00 9.6 °C 93 % 1,006.0 0.0 mm 4.3 km/h NE
2026-05-09 06:00 9.6 °C 92 % 1,006.2 0.0 mm 3.6 km/h NE
2026-05-09 05:00 10.4 °C 90 % 1,006.4 0.0 mm 1.8 km/h NW
2026-05-09 04:00 10.7 °C 88 % 1,006.3 0.0 mm 2.5 km/h SE
2026-05-09 03:00 10.9 °C 89 % 1,006.7 0.0 mm 3.2 km/h SE
2026-05-09 02:00 11.3 °C 87 % 1,007.2 0.1 mm 4.3 km/h E
2026-05-09 01:00 12.2 °C 74 % 1,007.0 0.0 mm 2.5 km/h SE
2026-05-09 00:00 12.5 °C 71 % 1,007.3 0.0 mm 4.0 km/h E
2026-05-08 23:00 11.7 °C 74 % 1,008.1 0.0 mm 8.3 km/h NE
2026-05-08 22:00 11.5 °C 77 % 1,008.3 0.0 mm 3.6 km/h E
2026-05-08 21:00 12.6 °C 73 % 1,007.9 0.0 mm 4.0 km/h NE
2026-05-08 20:00 14.0 °C 65 % 1,007.7 0.0 mm 2.9 km/h NE